createdAt,value
2023-05-02T00:03:48.679Z,1.33
2023-05-02T00:05:53.249Z,1.30
2023-05-02T00:07:57.645Z,1.30
2023-05-02T00:10:00.859Z,1.25
2023-05-02T00:12:05.456Z,1.52
2023-05-02T00:14:09.529Z,1.70
2023-05-02T00:16:11.345Z,1.45
2023-05-02T00:18:15.903Z,1.15
2023-05-02T00:20:17.385Z,1.63
2023-05-02T00:22:37.836Z,1.52
2023-05-02T00:24:39.220Z,1.20
2023-05-02T00:28:44.570Z,1.75
2023-05-02T00:30:46.743Z,1.02
2023-05-02T00:32:51.504Z,1.40
2023-05-02T00:34:53.282Z,1.30
2023-05-02T00:36:57.807Z,1.83
2023-05-02T00:38:59.231Z,1.25
2023-05-02T00:41:00.783Z,1.13
2023-05-02T00:43:05.082Z,1.20
2023-05-02T00:45:06.899Z,1.38
2023-05-02T00:47:14.952Z,1.60
2023-05-02T00:49:34.906Z,1.10
2023-05-02T00:51:39.618Z,1.23
2023-05-02T00:53:41.703Z,3.47
2023-05-02T00:55:43.430Z,1.10
2023-05-02T00:57:48.300Z,2.13
2023-05-02T00:59:52.511Z,1.02
2023-05-02T01:02:13.184Z,0.88
2023-05-02T01:04:30.417Z,0.88
2023-05-02T01:06:51.033Z,1.00
2023-05-02T01:09:13.795Z,1.10
2023-05-02T01:11:28.317Z,0.77
2023-05-02T01:13:33.383Z,1.45
2023-05-02T01:15:39.085Z,1.20
2023-05-02T01:17:41.053Z,1.40
2023-05-02T01:19:51.284Z,1.45
2023-05-02T01:21:56.822Z,1.27
2023-05-02T01:24:25.158Z,1.65
2023-05-02T01:26:41.229Z,1.52
2023-05-02T01:29:01.718Z,1.27
2023-05-02T01:31:04.374Z,1.30
2023-05-02T01:33:11.035Z,1.45
2023-05-02T01:35:14.893Z,1.23
2023-05-02T01:37:20.240Z,1.10
2023-05-02T01:39:22.892Z,1.17
2023-05-02T01:41:29.072Z,1.63
2023-05-02T01:43:35.068Z,1.52
2023-05-02T01:45:41.082Z,2.50
2023-05-02T01:47:43.961Z,2.00
2023-05-02T01:49:46.520Z,2.50
2023-05-02T01:52:11.832Z,2.08
2023-05-02T01:54:33.641Z,1.83
2023-05-02T01:56:39.385Z,1.10
2023-05-02T01:58:50.347Z,1.23
2023-05-02T02:00:56.685Z,1.70
2023-05-02T02:03:03.867Z,1.50
2023-05-02T02:05:11.550Z,1.27
2023-05-02T02:07:18.022Z,1.58
2023-05-02T02:09:40.431Z,1.75
2023-05-02T02:11:55.036Z,1.38
2023-05-02T02:14:08.920Z,1.70
2023-05-02T02:16:14.054Z,2.13
2023-05-02T02:18:24.323Z,1.20
2023-05-02T02:20:28.319Z,1.42
2023-05-02T02:22:32.321Z,1.20
2023-05-02T02:24:38.970Z,1.80
2023-05-02T02:26:45.089Z,1.38
2023-05-02T02:28:49.788Z,1.27
2023-05-02T02:30:53.985Z,1.45
2023-05-02T02:32:55.500Z,1.20
2023-05-02T02:34:57.013Z,1.20
2023-05-02T02:37:01.736Z,1.52
2023-05-02T02:39:09.064Z,2.17
2023-05-02T02:41:16.182Z,1.60
2023-05-02T02:43:49.022Z,1.77
2023-05-02T02:45:59.331Z,1.15
2023-05-02T02:48:28.673Z,1.45
2023-05-02T02:51:16.179Z,1.52
2023-05-02T02:53:33.046Z,1.60
2023-05-02T02:55:40.120Z,1.00
2023-05-02T02:57:51.768Z,2.00
2023-05-02T03:00:22.473Z,1.40
2023-05-02T03:02:28.400Z,1.23
2023-05-02T03:04:34.101Z,1.52
2023-05-02T03:06:38.627Z,1.33
2023-05-02T03:10:46.738Z,1.60
2023-05-02T03:12:55.546Z,1.27
2023-05-02T03:15:08.494Z,1.90
2023-05-02T03:17:10.588Z,1.67
2023-05-02T03:19:14.629Z,1.30
2023-05-02T03:21:18.911Z,1.42
2023-05-02T03:23:26.350Z,1.52
2023-05-02T03:25:28.119Z,1.30
2023-05-02T03:27:29.528Z,1.35
2023-05-02T03:29:30.966Z,1.33
2023-05-02T03:31:32.473Z,0.93
2023-05-02T03:35:37.934Z,1.10
2023-05-02T03:37:42.310Z,1.30
2023-05-02T03:39:44.241Z,1.65
2023-05-02T03:41:46.528Z,1.27
2023-05-02T03:43:47.960Z,1.50
2023-05-02T03:45:49.470Z,1.15
2023-05-02T03:47:50.936Z,1.40
2023-05-02T03:49:53.329Z,1.52
2023-05-02T03:51:57.634Z,1.63
2023-05-02T03:54:02.769Z,2.40
2023-05-02T03:56:04.430Z,2.20
2023-05-02T03:58:25.354Z,1.50
2023-05-02T04:00:31.370Z,1.30
2023-05-02T04:02:32.875Z,1.70
2023-05-02T04:04:37.569Z,1.60
2023-05-02T04:06:39.669Z,1.50
2023-05-02T04:08:41.112Z,1.55
2023-05-02T04:10:42.559Z,1.65
2023-05-02T04:12:46.926Z,1.40
2023-05-02T04:16:52.849Z,1.67
2023-05-02T04:18:54.685Z,1.48
2023-05-02T04:20:56.194Z,1.50
2023-05-02T04:25:04.687Z,1.98
2023-05-02T04:27:08.797Z,1.48
2023-05-02T04:29:29.017Z,1.50
2023-05-02T04:31:50.782Z,1.50
2023-05-02T04:33:52.267Z,1.60
2023-05-02T04:35:56.860Z,1.50
2023-05-02T04:38:01.596Z,1.98
2023-05-02T04:40:06.269Z,1.30
2023-05-02T04:42:07.790Z,2.03
2023-05-02T04:44:12.072Z,1.98
2023-05-02T04:46:13.594Z,1.80
2023-05-02T04:48:15.215Z,1.63
2023-05-02T04:50:16.698Z,1.80
2023-05-02T04:52:18.676Z,1.80
2023-05-02T04:54:38.482Z,2.53
2023-05-02T04:56:42.813Z,2.25
2023-05-02T04:58:44.454Z,2.40
2023-05-02T05:00:50.275Z,2.70
2023-05-02T05:02:54.043Z,1.60
2023-05-02T05:04:55.920Z,2.05
2023-05-02T05:07:03.715Z,3.15
2023-05-02T05:09:08.981Z,2.90
2023-05-02T05:11:11.130Z,3.22
2023-05-02T05:13:17.504Z,2.80
2023-05-02T05:15:26.213Z,2.85
2023-05-02T05:17:30.990Z,2.90
2023-05-02T05:19:35.248Z,3.15
2023-05-02T05:21:39.560Z,3.63
2023-05-02T05:23:46.470Z,3.30
2023-05-02T05:26:13.853Z,4.40
2023-05-02T05:28:15.352Z,5.07
2023-05-02T05:32:26.982Z,5.05
2023-05-02T05:34:29.015Z,5.45
2023-05-02T05:36:33.336Z,5.68
2023-05-02T05:38:35.620Z,7.60
2023-05-02T05:40:37.915Z,7.10
2023-05-02T05:42:40.124Z,7.43
2023-05-02T05:44:42.311Z,7.45
2023-05-02T05:46:49.031Z,8.07
2023-05-02T05:48:53.705Z,9.35
2023-05-02T05:50:57.993Z,11.52
2023-05-02T05:53:03.006Z,12.00
2023-05-02T05:55:07.370Z,13.73
2023-05-02T05:57:11.754Z,12.73
2023-05-02T05:59:16.151Z,13.35
2023-05-02T06:03:21.788Z,14.32
2023-05-02T06:05:25.873Z,15.18
2023-05-02T06:07:30.259Z,15.10
2023-05-02T06:09:32.706Z,14.43
2023-05-02T06:11:37.967Z,15.43
2023-05-02T06:13:42.428Z,15.63
2023-05-02T06:17:48.019Z,15.05
2023-05-02T06:19:49.555Z,16.38
2023-05-02T06:22:12.132Z,16.75
2023-05-02T06:24:32.208Z,16.63
2023-05-02T06:26:36.411Z,17.48
2023-05-02T06:28:41.082Z,18.83
2023-05-02T06:30:46.818Z,17.70
2023-05-02T06:33:08.047Z,16.80
2023-05-02T06:35:16.799Z,16.90
2023-05-02T06:37:18.699Z,16.35
2023-05-02T06:39:20.211Z,17.05
2023-05-02T06:41:24.524Z,18.27
2023-05-02T06:43:28.906Z,16.85
2023-05-02T06:45:30.504Z,16.75
2023-05-02T06:47:32.810Z,16.48
2023-05-02T06:49:34.450Z,16.20
2023-05-02T06:51:35.876Z,16.05
2023-05-02T06:53:40.285Z,15.57
2023-05-02T06:55:41.879Z,15.93
2023-05-02T06:57:43.752Z,16.05
2023-05-02T06:59:45.607Z,16.08
2023-05-02T07:01:49.999Z,15.68
2023-05-02T07:03:52.339Z,15.10
2023-05-02T07:05:53.892Z,15.50
2023-05-02T07:08:13.749Z,14.38
2023-05-02T07:10:15.237Z,15.20
2023-05-02T07:12:16.669Z,16.67
2023-05-02T07:14:18.137Z,14.98
2023-05-02T07:16:22.295Z,14.30
2023-05-02T07:18:26.626Z,14.48
2023-05-02T07:20:31.247Z,15.68
2023-05-02T07:22:35.809Z,15.02
2023-05-02T07:24:40.386Z,15.10
2023-05-02T07:26:44.662Z,15.80
2023-05-02T07:28:49.315Z,14.82
2023-05-02T07:30:50.832Z,13.38
2023-05-02T07:34:59.816Z,14.07
2023-05-02T07:37:01.381Z,14.55
2023-05-02T07:39:05.444Z,13.98
2023-05-02T07:43:14.312Z,13.25
2023-05-02T07:45:15.761Z,13.88
2023-05-02T07:47:20.133Z,13.77
2023-05-02T07:49:24.512Z,14.70
2023-05-02T07:51:28.998Z,13.30
2023-05-02T07:53:33.651Z,13.93
2023-05-02T07:55:38.797Z,13.57
2023-05-02T07:59:47.281Z,12.45
2023-05-02T08:03:54.953Z,12.50
2023-05-02T08:06:15.581Z,12.05
2023-05-02T08:08:20.070Z,12.88
2023-05-02T08:10:21.692Z,12.25
2023-05-02T08:12:30.128Z,13.07
2023-05-02T08:14:42.348Z,12.75
2023-05-02T08:16:56.551Z,13.55
2023-05-02T08:19:06.116Z,13.60
2023-05-02T08:21:16.532Z,11.65
2023-05-02T08:23:23.787Z,12.85
2023-05-02T08:25:29.170Z,13.55
2023-05-02T08:27:33.649Z,11.77
2023-05-02T08:29:41.055Z,13.95
2023-05-02T08:31:51.795Z,13.13
2023-05-02T08:33:59.240Z,11.25
2023-05-02T08:36:18.967Z,11.63
2023-05-02T08:38:29.479Z,10.80
2023-05-02T08:40:42.788Z,11.00
2023-05-02T08:42:46.674Z,11.95
2023-05-02T08:44:50.979Z,10.95
2023-05-02T08:46:55.563Z,12.63
2023-05-02T08:49:00.161Z,11.02
2023-05-02T08:51:04.430Z,10.85
2023-05-02T08:53:09.620Z,11.98
2023-05-02T08:55:12.055Z,11.95
2023-05-02T08:57:16.672Z,11.63
2023-05-02T08:59:18.415Z,10.45
2023-05-02T09:01:23.375Z,9.85
2023-05-02T09:03:27.884Z,9.50
2023-05-02T09:05:37.363Z,9.35
2023-05-02T09:07:46.409Z,8.27
2023-05-02T09:09:48.449Z,9.77
2023-05-02T09:11:50.886Z,8.95
2023-05-02T09:14:14.832Z,9.82
2023-05-02T09:16:17.253Z,10.57
2023-05-02T09:18:23.361Z,10.60
2023-05-02T09:20:24.981Z,9.65
2023-05-02T09:22:29.160Z,9.45
2023-05-02T09:24:30.690Z,10.10
2023-05-02T09:26:35.193Z,8.85
2023-05-02T09:28:43.569Z,9.40
2023-05-02T09:30:45.131Z,8.52
2023-05-02T09:32:47.480Z,8.10
2023-05-02T09:35:04.910Z,7.65
2023-05-02T09:37:06.527Z,7.95
2023-05-02T09:39:13.673Z,7.78
2023-05-02T09:41:20.079Z,8.73
2023-05-02T09:43:24.435Z,8.75
2023-05-02T09:45:28.549Z,8.02
2023-05-02T09:47:30.352Z,7.70
2023-05-02T09:49:41.211Z,8.75
2023-05-02T09:51:46.743Z,8.45
2023-05-02T09:53:48.666Z,8.10
2023-05-02T09:55:59.208Z,8.65
2023-05-02T09:58:01.139Z,8.73
2023-05-02T10:00:02.916Z,8.75
2023-05-02T10:02:07.610Z,10.98
2023-05-02T10:04:19.005Z,9.23
2023-05-02T10:06:24.156Z,8.18
2023-05-02T10:08:27.378Z,7.95
2023-05-02T10:10:29.220Z,7.72
2023-05-02T10:12:31.193Z,7.90
2023-05-02T10:14:41.771Z,7.28
2023-05-02T10:16:59.967Z,7.65
2023-05-02T10:19:08.903Z,7.95
2023-05-02T10:21:15.434Z,6.70
2023-05-02T10:23:17.164Z,7.70
2023-05-02T10:25:21.720Z,6.57
2023-05-02T10:27:23.221Z,8.35
2023-05-02T10:29:29.187Z,8.63
2023-05-02T10:31:34.031Z,9.40
2023-05-02T10:33:35.576Z,7.05
2023-05-02T10:35:37.707Z,7.95
2023-05-02T10:37:40.082Z,7.68
2023-05-02T10:40:00.587Z,7.32
2023-05-02T10:42:06.182Z,7.82
2023-05-02T10:44:35.828Z,6.80
2023-05-02T10:46:40.680Z,8.13
2023-05-02T10:48:59.792Z,7.15
2023-05-02T10:51:01.867Z,6.50
2023-05-02T10:53:24.616Z,7.45
2023-05-02T10:55:26.267Z,7.43
2023-05-02T10:57:27.693Z,8.15
2023-05-02T10:59:31.024Z,7.28
2023-05-02T11:01:37.680Z,6.97
2023-05-02T11:03:56.784Z,7.38
2023-05-02T11:06:05.277Z,7.15
2023-05-02T11:08:16.832Z,7.03
2023-05-02T11:10:20.303Z,5.85
2023-05-02T11:12:53.768Z,6.60
2023-05-02T11:15:14.482Z,5.53
2023-05-02T11:18:02.704Z,5.65
2023-05-02T11:20:09.552Z,5.50
2023-05-02T11:22:19.086Z,5.72
2023-05-02T11:24:40.997Z,5.80
2023-05-02T11:27:22.231Z,5.75
2023-05-02T11:29:49.721Z,5.10
2023-05-02T11:32:11.948Z,4.95
2023-05-02T11:34:17.969Z,5.55
2023-05-02T11:36:40.250Z,5.53
2023-05-02T11:38:44.090Z,4.90
2023-05-02T11:42:50.676Z,4.57
2023-05-02T11:45:00.967Z,5.35
2023-05-02T11:47:05.381Z,5.22
2023-05-02T11:49:15.236Z,5.47
2023-05-02T11:51:23.155Z,4.35
2023-05-02T11:53:32.134Z,4.57
2023-05-02T11:55:33.777Z,4.45
2023-05-02T11:57:38.608Z,6.15
2023-05-02T12:00:11.368Z,4.75
2023-05-02T12:02:15.957Z,4.25
2023-05-02T12:04:21.960Z,4.38
2023-05-02T12:06:23.615Z,4.88
2023-05-02T12:08:28.411Z,3.80
2023-05-02T12:10:37.037Z,5.00
2023-05-02T12:12:39.796Z,4.65
2023-05-02T12:14:41.498Z,4.10
2023-05-02T12:16:45.795Z,4.50
2023-05-02T12:18:47.621Z,5.07
2023-05-02T12:21:07.877Z,4.47
2023-05-02T12:23:12.431Z,4.45
2023-05-02T12:25:14.140Z,5.03
2023-05-02T12:27:18.663Z,5.55
2023-05-02T12:29:37.021Z,4.72
2023-05-02T12:31:39.029Z,4.53
2023-05-02T12:33:43.643Z,4.63
2023-05-02T12:35:48.262Z,4.13
2023-05-02T12:37:53.647Z,4.30
2023-05-02T12:39:55.972Z,4.93
2023-05-02T12:41:57.877Z,4.40
2023-05-02T12:44:02.247Z,4.97
2023-05-02T12:46:12.567Z,3.80
2023-05-02T12:48:17.883Z,4.97
2023-05-02T12:50:34.824Z,5.78
2023-05-02T12:52:48.520Z,3.85
2023-05-02T12:54:50.245Z,3.50
2023-05-02T12:56:54.505Z,3.80
2023-05-02T12:58:56.079Z,3.70
2023-05-02T13:00:57.831Z,3.15
2023-05-02T13:02:59.702Z,3.65
2023-05-02T13:05:01.434Z,4.15
2023-05-02T13:07:06.014Z,3.28
2023-05-02T13:09:10.416Z,3.22
2023-05-02T13:11:14.796Z,4.00
2023-05-02T13:13:19.376Z,3.88
2023-05-02T13:15:23.583Z,3.25
2023-05-02T13:17:25.359Z,3.10
2023-05-02T13:19:31.420Z,3.55
2023-05-02T13:21:33.185Z,2.90
2023-05-02T13:23:39.563Z,3.30
2023-05-02T13:27:46.065Z,2.95
2023-05-02T13:29:48.816Z,2.88
2023-05-02T13:31:50.341Z,2.67
2023-05-02T13:33:51.804Z,2.55
2023-05-02T13:35:56.178Z,2.35
2023-05-02T13:37:57.710Z,2.63
2023-05-02T13:39:59.284Z,2.38
2023-05-02T13:42:05.942Z,3.17
2023-05-02T13:44:09.257Z,3.22
2023-05-02T13:46:13.626Z,2.58
2023-05-02T13:48:18.032Z,2.88
2023-05-02T13:50:19.878Z,2.97
2023-05-02T13:52:24.193Z,2.80
2023-05-02T13:54:26.169Z,2.85
2023-05-02T13:56:30.129Z,2.65
2023-05-02T13:58:31.765Z,2.28
2023-05-02T14:00:33.361Z,3.70
2023-05-02T14:02:38.500Z,3.53
2023-05-02T14:04:40.031Z,3.38
2023-05-02T14:06:41.624Z,2.58
2023-05-02T14:08:43.200Z,2.85
2023-05-02T14:10:47.381Z,3.85
2023-05-02T14:12:49.263Z,3.13
2023-05-02T14:14:50.861Z,3.30
2023-05-02T14:16:52.326Z,3.30
2023-05-02T14:18:54.022Z,2.40
2023-05-02T14:21:00.032Z,2.90
2023-05-02T14:23:20.758Z,2.83
2023-05-02T14:25:22.234Z,2.63
2023-05-02T14:27:23.819Z,2.17
2023-05-02T14:29:26.922Z,2.50
2023-05-02T14:31:30.689Z,3.20
2023-05-02T14:33:34.043Z,2.78
2023-05-02T14:35:37.629Z,3.15
2023-05-02T14:37:45.850Z,2.50
2023-05-02T14:39:57.015Z,2.55
2023-05-02T14:41:59.780Z,2.25
2023-05-02T14:44:03.486Z,2.80
2023-05-02T14:46:07.188Z,1.98
2023-05-02T14:48:15.149Z,2.63
2023-05-02T14:50:18.677Z,2.90
2023-05-02T14:52:22.487Z,2.40
2023-05-02T14:54:30.853Z,3.10
2023-05-02T14:56:37.406Z,2.75
2023-05-02T14:58:44.259Z,2.38
2023-05-02T15:00:49.766Z,2.63
2023-05-02T15:02:51.521Z,2.55
2023-05-02T15:04:55.782Z,2.40
2023-05-02T15:07:00.588Z,2.65
2023-05-02T15:09:05.185Z,2.65
2023-05-02T15:11:06.825Z,2.45
2023-05-02T15:13:08.800Z,3.17
2023-05-02T15:15:13.880Z,2.78
2023-05-02T15:17:15.647Z,2.80
2023-05-02T15:19:35.517Z,2.50
2023-05-02T15:21:39.953Z,2.45
2023-05-02T15:23:59.996Z,2.50
2023-05-02T15:26:01.687Z,3.38
2023-05-02T15:28:03.944Z,2.90
2023-05-02T15:30:08.474Z,2.15
2023-05-02T15:32:09.988Z,3.20
2023-05-02T15:34:14.001Z,3.30
2023-05-02T15:36:37.354Z,2.80
2023-05-02T15:38:42.996Z,2.78
2023-05-02T15:40:53.935Z,3.05
2023-05-02T15:42:55.503Z,2.50
2023-05-02T15:44:59.752Z,2.80
2023-05-02T15:47:01.409Z,2.55
2023-05-02T15:49:02.901Z,2.75
2023-05-02T15:51:09.132Z,3.50
2023-05-02T15:53:10.608Z,2.65
2023-05-02T15:57:19.739Z,2.15
2023-05-02T15:59:21.388Z,2.20
2023-05-02T16:01:25.510Z,3.10
2023-05-02T16:03:27.897Z,2.92
2023-05-02T16:05:29.361Z,2.50
2023-05-02T16:07:33.635Z,3.05
2023-05-02T16:09:53.907Z,2.58
2023-05-02T16:11:58.318Z,2.42
2023-05-02T16:14:02.548Z,3.22
2023-05-02T16:16:07.844Z,2.42
2023-05-02T16:18:12.152Z,3.15
2023-05-02T16:20:17.161Z,2.92
2023-05-02T16:22:21.896Z,2.05
2023-05-02T16:24:26.281Z,2.97
2023-05-02T16:26:32.869Z,2.55
2023-05-02T16:28:35.057Z,2.33
2023-05-02T16:30:37.229Z,2.65
2023-05-02T16:32:41.538Z,2.45
2023-05-02T16:34:43.003Z,2.45
2023-05-02T16:36:44.487Z,2.47
2023-05-02T16:38:46.208Z,2.33
2023-05-02T16:40:50.639Z,1.83
2023-05-02T16:43:10.771Z,2.70
2023-05-02T16:45:12.217Z,2.97
2023-05-02T16:47:16.546Z,2.75
2023-05-02T16:49:20.924Z,2.40
2023-05-02T16:51:25.172Z,2.40
2023-05-02T16:53:27.095Z,2.85
2023-05-02T16:55:31.779Z,2.20
2023-05-02T16:57:33.236Z,2.53
2023-05-02T16:59:34.662Z,2.42
2023-05-02T17:01:36.225Z,2.40
2023-05-02T17:03:41.454Z,2.78
2023-05-02T17:05:45.713Z,2.55
2023-05-02T17:07:47.284Z,2.28
2023-05-02T17:09:51.700Z,2.40
2023-05-02T17:11:56.083Z,2.47
2023-05-02T17:13:57.545Z,2.08
2023-05-02T17:16:03.442Z,2.38
2023-05-02T17:18:08.154Z,2.63
2023-05-02T17:20:28.527Z,2.10
2023-05-02T17:22:30.149Z,2.60
2023-05-02T17:24:34.616Z,2.58
2023-05-02T17:26:45.574Z,2.50
2023-05-02T17:29:16.121Z,2.70
2023-05-02T17:31:25.862Z,2.40
2023-05-02T17:33:39.821Z,2.95
2023-05-02T17:35:54.798Z,2.97
2023-05-02T17:38:14.190Z,2.10
2023-05-02T17:40:24.679Z,2.40
2023-05-02T17:42:36.182Z,3.10
2023-05-02T17:44:44.015Z,2.53
2023-05-02T17:46:57.117Z,2.78
2023-05-02T17:49:06.699Z,2.83
2023-05-02T17:51:19.684Z,2.58
2023-05-02T17:53:35.178Z,2.88
2023-05-02T17:55:47.095Z,3.35
2023-05-02T17:57:53.345Z,2.70
2023-05-02T17:59:59.729Z,3.95
2023-05-02T18:02:01.748Z,2.60
2023-05-02T18:04:04.153Z,3.08
2023-05-02T18:06:06.242Z,2.00
2023-05-02T18:08:08.133Z,2.45
2023-05-02T18:10:09.780Z,2.70
2023-05-02T18:12:15.508Z,2.05
2023-05-02T18:14:16.946Z,2.40
2023-05-02T18:16:19.087Z,2.22
2023-05-02T18:18:23.439Z,1.70
2023-05-02T18:20:27.503Z,2.28
2023-05-02T18:22:32.561Z,2.70
2023-05-02T18:24:34.190Z,2.33
2023-05-02T18:26:38.657Z,2.40
2023-05-02T18:28:58.689Z,2.25
2023-05-02T18:31:03.936Z,2.17
2023-05-02T18:33:06.623Z,2.42
2023-05-02T18:35:11.235Z,3.00
2023-05-02T18:37:15.625Z,2.55
2023-05-02T18:39:21.514Z,2.50
2023-05-02T18:41:26.250Z,3.15
2023-05-02T18:43:46.535Z,2.72
2023-05-02T18:45:48.045Z,2.47
2023-05-02T18:47:52.352Z,2.63
2023-05-02T18:49:56.411Z,3.22
2023-05-02T18:51:58.428Z,2.40
2023-05-02T18:53:59.869Z,3.28
2023-05-02T18:56:01.488Z,2.70
2023-05-02T18:58:03.065Z,3.90
2023-05-02T19:00:06.423Z,2.70
2023-05-02T19:02:26.740Z,3.08
2023-05-02T19:04:30.690Z,2.53
2023-05-02T19:06:36.308Z,3.50
2023-05-02T19:08:40.754Z,3.53
2023-05-02T19:10:46.357Z,3.65
2023-05-02T19:12:53.868Z,3.33
2023-05-02T19:15:01.842Z,3.42
2023-05-02T19:17:05.706Z,3.80
2023-05-02T19:19:10.466Z,4.18
2023-05-02T19:21:31.500Z,3.83
2023-05-02T19:23:33.118Z,3.85
2023-05-02T19:25:40.286Z,3.92
2023-05-02T19:27:42.421Z,2.78
2023-05-02T19:29:47.638Z,3.33
2023-05-02T19:31:49.410Z,4.53
2023-05-02T19:33:55.064Z,4.25
2023-05-02T19:35:58.452Z,4.47
2023-05-02T19:38:02.027Z,4.03
2023-05-02T19:40:04.642Z,4.82
2023-05-02T19:42:09.314Z,4.00
2023-05-02T19:44:10.761Z,4.07
2023-05-02T19:46:12.365Z,3.70
2023-05-02T19:48:16.665Z,3.50
2023-05-02T19:50:18.263Z,4.15
2023-05-02T19:52:19.687Z,3.60
2023-05-02T19:54:21.185Z,3.60
2023-05-02T19:56:25.426Z,5.10
2023-05-02T19:58:27.268Z,4.45
2023-05-02T20:00:29.157Z,4.03
2023-05-02T20:02:31.113Z,4.82
2023-05-02T20:04:35.373Z,4.22
2023-05-02T20:06:39.846Z,4.93
2023-05-02T20:08:48.349Z,3.65
2023-05-02T20:10:51.225Z,4.13
2023-05-02T20:12:52.769Z,4.05
2023-05-02T20:14:54.953Z,4.22
2023-05-02T20:17:01.847Z,4.07
2023-05-02T20:19:04.347Z,3.58
2023-05-02T20:21:08.912Z,4.97
2023-05-02T20:23:13.590Z,4.43
2023-05-02T20:25:16.079Z,3.67
2023-05-02T20:27:20.308Z,4.60
2023-05-02T20:29:25.170Z,4.47
2023-05-02T20:31:28.222Z,6.15
2023-05-02T20:33:45.737Z,4.27
2023-05-02T20:36:09.319Z,4.35
2023-05-02T20:38:30.312Z,4.45
2023-05-02T20:40:49.697Z,4.22
2023-05-02T20:43:05.119Z,3.97
2023-05-02T20:45:36.165Z,4.88
2023-05-02T20:48:06.482Z,4.07
2023-05-02T20:50:39.327Z,4.18
2023-05-02T20:53:11.163Z,5.13
2023-05-02T20:55:35.559Z,4.32
2023-05-02T20:57:57.921Z,4.82
2023-05-02T21:00:22.247Z,5.15
2023-05-02T21:02:34.696Z,4.07
2023-05-02T21:04:41.023Z,3.47
2023-05-02T21:06:46.564Z,4.53
2023-05-02T21:08:51.032Z,5.15
2023-05-02T21:10:55.699Z,3.95
2023-05-02T21:12:59.871Z,4.43
2023-05-02T21:15:01.319Z,4.47
2023-05-02T21:17:02.920Z,4.47
2023-05-02T21:19:04.446Z,4.63
2023-05-02T21:21:09.070Z,4.18
2023-05-02T21:23:13.222Z,4.70
2023-05-02T21:25:14.948Z,3.67
2023-05-02T21:27:19.251Z,3.38
2023-05-02T21:29:21.244Z,4.38
2023-05-02T21:31:25.330Z,3.75
2023-05-02T21:33:29.803Z,4.47
2023-05-02T21:35:34.132Z,4.60
2023-05-02T21:37:35.770Z,3.67
2023-05-02T21:39:38.500Z,3.97
2023-05-02T21:41:42.739Z,5.70
2023-05-02T21:43:44.984Z,4.03
2023-05-02T21:45:47.512Z,3.55
2023-05-02T21:47:52.751Z,3.72
2023-05-02T21:49:55.699Z,4.25
2023-05-02T21:51:59.815Z,3.67
2023-05-02T21:54:01.272Z,3.72
2023-05-02T21:56:02.754Z,4.22
2023-05-02T21:58:04.298Z,3.40
2023-05-02T22:00:08.717Z,4.60
2023-05-02T22:02:13.177Z,3.75
2023-05-02T22:04:14.722Z,3.63
2023-05-02T22:08:26.113Z,3.88
2023-05-02T22:10:30.490Z,4.28
2023-05-02T22:12:34.895Z,4.43
2023-05-02T22:16:47.305Z,3.80
2023-05-02T22:18:51.851Z,4.40
2023-05-02T22:20:54.102Z,3.88
2023-05-02T22:22:56.597Z,4.43
2023-05-02T22:25:02.768Z,4.60
2023-05-02T22:27:04.444Z,4.63
2023-05-02T22:29:06.744Z,4.07
2023-05-02T22:31:10.998Z,4.10
2023-05-02T22:33:14.107Z,4.25
2023-05-02T22:35:15.733Z,4.05
2023-05-02T22:37:20.015Z,3.90
2023-05-02T22:39:21.588Z,3.80
2023-05-02T22:41:23.022Z,5.03
2023-05-02T22:43:43.368Z,4.93
2023-05-02T22:45:44.811Z,4.07
2023-05-02T22:47:46.280Z,5.30
2023-05-02T22:49:52.494Z,4.10
2023-05-02T22:51:57.934Z,5.40
2023-05-02T22:54:04.719Z,4.85
2023-05-02T22:56:06.293Z,4.10
2023-05-02T22:58:11.681Z,4.43
2023-05-02T23:00:32.173Z,3.83
2023-05-02T23:02:36.833Z,4.88
2023-05-02T23:04:38.401Z,4.70
2023-05-02T23:06:39.904Z,4.32
2023-05-02T23:08:44.222Z,3.55
2023-05-02T23:10:51.904Z,4.20
2023-05-02T23:12:59.150Z,3.70
2023-05-02T23:15:07.037Z,3.40
2023-05-02T23:17:08.585Z,3.47
2023-05-02T23:21:17.145Z,3.33
2023-05-02T23:23:21.370Z,3.83
2023-05-02T23:25:27.031Z,3.60
2023-05-02T23:27:31.187Z,3.35
2023-05-02T23:31:36.809Z,3.13
2023-05-02T23:33:38.925Z,2.60
2023-05-02T23:35:40.793Z,2.72
2023-05-02T23:37:50.715Z,3.08
2023-05-02T23:39:55.483Z,2.53
2023-05-02T23:41:57.035Z,3.10
2023-05-02T23:44:17.065Z,3.25
2023-05-02T23:46:21.625Z,2.70
2023-05-02T23:48:28.052Z,2.65
2023-05-02T23:50:32.214Z,3.05
2023-05-02T23:54:45.087Z,2.38
2023-05-02T23:56:51.467Z,2.45
2023-05-02T23:58:57.816Z,2.75
